Time;durP1;ratioP1;P1;durP2;ratioP2;P2;SDS_P1;SDS_P2;PMS_P1;PMS_P2;Temp;Humidity;BMP_temperature;BMP_pressure;BME280_temperature;BME280_humidity;BME280_pressure;Samples;Min_cycle;Max_cycle;Signal;HPM_P1;HPM_P2
2022/04/06 11:54:57;;;;;;;1.70;0.60;;;;;;;28.25;19.94;98651.72;5321345;23;20228;-87
2022/04/06 11:57:34;;;;;;;2.05;1.02;;;;;;;27.92;20.53;98650.78;4977131;28;20188;-88
2022/04/06 12:00:00;;;;;;;5.25;1.10;;;;;;;28.00;20.29;98650.59;4959935;28;20208;-88
2022/04/06 12:02:26;;;;;;;1.88;0.70;;;;;;;28.02;20.55;98648.56;4976737;28;20191;-90
2022/04/06 12:05:04;;;;;;;3.08;0.90;;;;;;;28.29;19.84;98642.19;4959649;28;20184;-89
2022/04/06 12:07:31;;;;;;;2.63;1.00;;;;;;;28.35;20.36;98643.25;4976654;28;20176;-88
2022/04/06 12:09:56;;;;;;;1.60;0.80;;;;;;;27.94;19.71;98646.84;4976599;28;20199;-89
2022/04/06 12:12:23;;;;;;;1.23;0.60;;;;;;;27.17;19.85;98637.38;4975423;28;20520;-88
2022/04/06 12:14:51;;;;;;;1.63;0.85;;;;;;;27.53;21.56;98631.78;4976501;28;20325;-87
2022/04/06 12:17:19;;;;;;;1.10;0.60;;;;;;;27.66;21.42;98631.84;4976435;28;20564;-90
2022/04/06 12:19:45;;;;;;;4.57;0.85;;;;;;;27.79;20.43;98635.41;4959324;28;20210;-88
2022/04/06 12:22:13;;;;;;;3.47;1.10;;;;;;;27.90;19.93;98631.31;4976391;28;20262;-88
2022/04/06 12:24:40;;;;;;;1.25;0.60;;;;;;;27.97;20.38;98624.91;4976599;28;20181;-88
2022/04/06 12:27:07;;;;;;;1.88;0.70;;;;;;;27.90;19.29;98625.91;4976303;28;20177;-88
2022/04/06 12:29:35;;;;;;;2.65;0.90;;;;;;;28.03;20.17;98615.19;4976874;28;20185;-89
2022/04/06 12:32:04;;;;;;;1.75;0.70;;;;;;;27.95;19.88;98623.44;4976185;28;20181;-90
2022/04/06 12:34:34;;;;;;;1.55;0.73;;;;;;;28.05;20.29;98618.50;4976648;28;20596;-90
2022/04/06 12:37:29;;;;;;;1.67;0.70;;;;;;;27.88;18.57;98606.44;4976186;28;20161;-88
2022/04/06 12:39:49;;;;;;;1.65;0.60;;;;;;;27.76;19.61;98605.34;4975878;28;20200;-88
2022/04/06 12:42:14;;;;;;;2.05;0.70;;;;;;;27.80;19.22;98603.94;4976301;28;20176;-90
2022/04/06 12:44:55;;;;;;;2.40;0.63;;;;;;;27.80;19.37;98609.31;4976238;28;20173;-88
2022/04/06 12:47:23;;;;;;;1.73;0.88;;;;;;;28.05;19.85;98596.97;4975918;28;20510;-88
2022/04/06 12:49:48;;;;;;;1.50;0.50;;;;;;;28.44;19.33;98594.31;4975872;28;20323;-88
2022/04/06 12:52:17;;;;;;;1.30;0.40;;;;;;;28.11;19.32;98589.91;4975835;28;20243;-88
2022/04/06 12:54:48;;;;;;;0.95;0.60;;;;;;;28.25;19.72;98597.81;4959092;28;20596;-90
2022/04/06 12:57:41;;;;;;;3.22;1.02;;;;;;;27.95;19.26;98591.09;4976097;28;20173;-92
2022/04/06 13:00:36;;;;;;;1.23;0.50;;;;;;;27.29;19.27;98595.41;4972000;28;20216;-93
2022/04/06 13:03:05;;;;;;;1.98;0.60;;;;;;;27.38;20.23;98584.25;4957337;28;20200;-88
2022/04/06 13:05:31;;;;;;;1.80;0.70;;;;;;;27.92;20.16;98581.56;4975542;28;20181;-88
2022/04/06 13:07:57;;;;;;;1.08;0.50;;;;;;;27.88;19.55;98576.81;4975866;28;20616;-88
2022/04/06 13:10:34;;;;;;;0.98;0.50;;;;;;;27.70;19.06;98566.59;4975549;28;20187;-91
2022/04/06 13:13:00;;;;;;;2.60;1.02;;;;;;;28.01;20.15;98564.19;4976303;28;20609;-90
2022/04/06 13:15:27;;;;;;;1.13;0.52;;;;;;;28.04;19.42;98569.19;4975445;28;20389;-89
2022/04/06 13:17:53;;;;;;;2.13;0.75;;;;;;;28.20;19.47;98551.78;4975530;28;20192;-89
2022/04/06 13:20:21;;;;;;;2.13;0.90;;;;;;;28.06;20.57;98558.22;4975851;28;20241;-89
2022/04/06 13:22:48;;;;;;;2.17;1.00;;;;;;;28.52;20.09;98553.66;4974994;28;20318;-88
2022/04/06 13:25:15;;;;;;;1.10;0.68;;;;;;;28.48;19.69;98544.34;4975305;28;20192;-89
2022/04/06 13:27:43;;;;;;;3.38;0.70;;;;;;;28.06;19.98;98544.75;4975585;28;20172;-90
2022/04/06 13:30:14;;;;;;;1.75;0.85;;;;;;;28.43;20.19;98540.59;4975114;28;20179;-90
2022/04/06 13:32:44;;;;;;;3.67;0.43;;;;;;;28.47;20.05;98534.56;4958030;28;20184;-90
2022/04/06 13:35:11;;;;;;;2.13;0.82;;;;;;;28.76;19.21;98536.00;4975571;28;20184;-88
2022/04/06 13:37:37;;;;;;;1.52;0.70;;;;;;;28.85;19.42;98539.31;4957946;28;20187;-89
2022/04/06 13:40:06;;;;;;;2.03;0.85;;;;;;;28.05;19.25;98534.97;4957913;28;20298;-92
2022/04/06 13:42:31;;;;;;;1.38;0.50;;;;;;;27.88;19.06;98531.00;4957901;28;20185;-88
2022/04/06 13:44:57;;;;;;;1.75;0.80;;;;;;;28.20;19.44;98524.81;4957771;28;20255;-90
2022/04/06 13:47:23;;;;;;;5.70;1.17;;;;;;;28.42;19.76;98523.59;4975098;28;20191;-89
2022/04/06 13:49:49;;;;;;;6.78;2.05;;;;;;;28.55;19.42;98514.66;4974786;28;20176;-90
2022/04/06 13:52:15;;;;;;;3.33;1.00;;;;;;;28.15;19.90;98505.75;4957653;28;20183;-90
2022/04/06 13:54:40;;;;;;;3.63;1.30;;;;;;;28.23;20.01;98512.78;4974485;28;20267;-89
2022/04/06 13:57:06;;;;;;;5.40;1.70;;;;;;;28.35;19.94;98503.91;4974787;28;20263;-88
2022/04/06 13:59:31;;;;;;;10.68;2.50;;;;;;;28.46;20.40;98505.94;4974364;28;20200;-88
2022/04/06 14:01:57;;;;;;;11.07;2.28;;;;;;;28.55;21.80;98498.47;4974580;28;20654;-87
2022/04/06 14:04:22;;;;;;;21.50;5.35;;;;;;;27.97;23.78;98502.81;4974897;28;20251;-89
2022/04/06 14:06:49;;;;;;;4.10;1.33;;;;;;;27.82;22.55;98500.34;4974502;28;20230;-87
2022/04/06 14:09:14;;;;;;;3.17;1.05;;;;;;;27.69;24.81;98502.16;4974343;28;20238;-89
2022/04/06 14:11:46;;;;;;;2.67;0.88;;;;;;;27.36;22.22;98505.56;4974994;28;20180;-91
2022/04/06 14:14:22;;;;;;;2.53;1.00;;;;;;;26.78;21.29;98500.78;4958315;28;20245;-93
2022/04/06 14:16:48;;;;;;;2.37;0.83;;;;;;;26.67;22.03;98499.44;4957517;28;20329;-89
2022/04/06 14:19:13;;;;;;;7.90;2.47;;;;;;;27.15;23.84;98494.13;4957272;28;20664;-89
2022/04/06 14:21:39;;;;;;;17.33;5.97;;;;;;;27.22;25.83;98495.81;4974321;28;20180;-88
2022/04/06 14:24:07;;;;;;;2.92;1.65;;;;;;;27.22;22.18;98492.28;4974276;28;20318;-89
2022/04/06 14:26:41;;;;;;;10.80;4.03;;;;;;;26.42;36.47;98500.09;4974947;28;20278;-94
2022/04/06 14:29:10;;;;;;;2.97;1.43;;;;;;;24.64;33.89;98497.31;4974942;28;20227;-92
2022/04/06 14:31:36;;;;;;;6.33;1.60;;;;;;;23.83;37.04;98487.38;4957333;28;20257;-87
2022/04/06 14:34:01;;;;;;;14.60;3.93;;;;;;;23.17;34.24;98495.16;4973753;28;20613;-90
2022/04/06 14:36:27;;;;;;;6.00;1.70;;;;;;;22.87;31.80;98487.94;4974107;28;20180;-87
2022/04/06 14:38:52;;;;;;;9.00;2.93;;;;;;;23.37;31.91;98480.38;4974129;28;20196;-91
2022/04/06 14:41:18;;;;;;;6.73;1.53;;;;;;;23.88;31.85;98478.78;4974344;28;20646;-91
2022/04/06 14:43:43;;;;;;;2.30;1.00;;;;;;;24.12;29.01;98477.78;4974126;28;20250;-89
2022/04/06 14:46:09;;;;;;;2.80;0.83;;;;;;;23.93;29.29;98486.28;4957327;28;20205;-93
2022/04/06 14:48:34;;;;;;;4.53;1.20;;;;;;;24.17;28.20;98472.69;4974260;28;20200;-90
2022/04/06 14:51:00;;;;;;;2.70;1.37;;;;;;;24.25;28.77;98465.41;4957025;28;20648;-88
2022/04/06 14:53:25;;;;;;;3.47;0.87;;;;;;;24.40;28.85;98468.94;4974154;28;20242;-90
2022/04/06 14:55:51;;;;;;;2.57;1.23;;;;;;;24.49;27.61;98475.03;4957021;28;20176;-90
2022/04/06 14:58:17;;;;;;;1.37;0.70;;;;;;;24.79;28.34;98474.03;4974119;28;20553;-89
2022/04/06 15:00:43;;;;;;;3.67;1.40;;;;;;;25.10;27.38;98465.78;4973913;28;20180;-91
2022/04/06 15:03:09;;;;;;;1.67;1.13;;;;;;;25.42;27.15;98464.47;4956887;28;20199;-90
2022/04/06 15:05:35;;;;;;;2.07;0.93;;;;;;;25.48;25.33;98474.47;4973979;28;20176;-92
2022/04/06 15:08:01;;;;;;;3.13;1.37;;;;;;;25.61;25.39;98461.19;4973856;28;20667;-91
2022/04/06 15:10:27;;;;;;;1.40;0.70;;;;;;;25.31;25.86;98471.19;4974002;28;20188;-95
2022/04/06 15:13:09;;;;;;;2.47;1.10;;;;;;;24.88;25.99;98483.66;4974103;28;20188;-95
2022/04/06 15:15:37;;;;;;;2.47;1.00;;;;;;;25.00;27.14;98475.94;4974077;28;20175;-91
2022/04/06 15:18:03;;;;;;;3.47;1.20;;;;;;;25.13;26.84;98480.66;4974018;28;20185;-92
2022/04/06 15:20:31;;;;;;;1.93;0.90;;;;;;;24.30;27.31;98478.25;4974111;28;20176;-95
2022/04/06 15:22:57;;;;;;;2.93;1.30;;;;;;;24.23;27.17;98480.84;4974093;28;20636;-90
2022/04/06 15:25:23;;;;;;;2.30;1.10;;;;;;;23.96;27.86;98477.88;4974121;28;20184;-92
2022/04/06 15:27:49;;;;;;;7.33;1.33;;;;;;;23.67;28.60;98475.94;4974454;28;20185;-93
2022/04/06 15:30:15;;;;;;;2.10;1.03;;;;;;;23.61;28.25;98474.81;4957156;28;20675;-92
2022/04/06 15:32:40;;;;;;;3.07;1.33;;;;;;;23.98;28.14;98470.53;4957264;28;20201;-93
2022/04/06 15:38:00;;;;;;;3.90;1.37;;;;;;;23.27;28.71;98484.25;4974462;28;20260;-93
2022/04/06 15:40:26;;;;;;;3.23;1.33;;;;;;;23.10;29.23;98475.47;4974486;28;20581;-91
2022/04/06 15:42:52;;;;;;;2.13;1.37;;;;;;;23.11;28.79;98477.16;4973751;28;20231;-92
2022/04/06 15:45:17;;;;;;;4.13;1.00;;;;;;;22.84;29.41;98474.94;4957286;28;20187;-91
2022/04/06 15:47:43;;;;;;;4.03;1.47;;;;;;;22.50;29.62;98478.72;4960222;28;20176;-93
2022/04/06 15:50:10;;;;;;;3.13;1.70;;;;;;;22.54;29.63;98477.34;4977222;28;20165;-92
2022/04/06 15:52:35;;;;;;;5.23;1.77;;;;;;;22.22;30.01;98468.59;4977038;28;20180;-90
2022/04/06 15:55:02;;;;;;;4.43;2.03;;;;;;;22.15;29.52;98464.94;4977113;28;20194;-92
2022/04/06 15:57:27;;;;;;;5.93;1.70;;;;;;;22.15;29.75;98462.25;4977091;28;20184;-90
2022/04/06 15:59:53;;;;;;;8.97;3.30;;;;;;;22.39;29.89;98463.03;4959949;28;20204;-92
2022/04/06 16:02:22;;;;;;;5.90;1.90;;;;;;;22.46;29.60;98464.03;4977014;28;20242;-93
2022/04/06 16:04:48;;;;;;;9.30;2.43;;;;;;;22.13;29.73;98462.44;4977211;28;20172;-94
2022/04/06 16:07:15;;;;;;;7.30;3.03;;;;;;;22.27;29.65;98469.75;4976827;28;20191;-92
2022/04/06 16:09:42;;;;;;;4.63;1.50;;;;;;;21.93;29.53;98467.28;4969758;28;20268;-88
2022/04/06 16:12:08;;;;;;;5.90;2.43;;;;;;;21.70;29.92;98465.44;4970172;28;20192;-93
2022/04/06 16:14:36;;;;;;;5.67;2.10;;;;;;;21.75;29.98;98457.78;4977360;28;20243;-92
2022/04/06 16:17:03;;;;;;;4.07;1.77;;;;;;;22.21;29.17;98462.44;4967687;28;20186;-93
2022/04/06 16:19:31;;;;;;;7.87;2.47;;;;;;;22.10;29.58;98462.78;4979348;28;20781;-93
2022/04/06 16:21:58;;;;;;;5.97;3.07;;;;;;;21.58;30.31;98456.94;4954458;28;20204;-93
2022/04/06 16:24:25;;;;;;;7.10;2.67;;;;;;;21.37;30.46;98468.09;4944793;29;20188;-91
2022/04/06 16:26:52;;;;;;;3.73;1.67;;;;;;;21.65;30.30;98467.75;4944702;29;20193;-93
2022/04/06 16:29:18;;;;;;;4.73;1.93;;;;;;;21.78;30.42;98471.59;4942942;29;20211;-90
2022/04/06 16:31:45;;;;;;;3.43;1.57;;;;;;;21.74;30.52;98466.78;4948966;29;20192;-90
2022/04/06 16:34:12;;;;;;;3.40;1.57;;;;;;;21.87;30.16;98472.47;4950329;29;20182;-92
2022/04/06 16:36:42;;;;;;;4.03;1.90;;;;;;;21.77;30.37;98461.13;4945455;29;20188;-93
2022/04/06 16:39:10;;;;;;;4.07;1.30;;;;;;;21.77;30.73;98466.44;4938161;29;20209;-92
2022/04/06 16:41:38;;;;;;;3.47;1.47;;;;;;;21.48;31.23;98469.59;4920837;29;20249;-91
2022/04/06 16:44:06;;;;;;;6.40;1.83;;;;;;;21.30;31.48;98464.41;4930484;29;20191;-91
2022/04/06 16:46:34;;;;;;;3.33;1.73;;;;;;;21.28;31.46;98460.22;4955898;29;20191;-91
2022/04/06 16:49:04;;;;;;;5.80;2.10;;;;;;;21.29;31.51;98459.25;4956977;29;20205;-92
2022/04/06 16:54:18;;;;;;;7.57;2.40;;;;;;;20.60;31.91;98463.00;4942945;29;20280;-93
2022/04/06 16:56:46;;;;;;;9.60;3.33;;;;;;;20.56;32.37;98472.31;4959282;28;20640;-90
2022/04/06 16:59:13;;;;;;;2.97;1.40;;;;;;;20.71;32.20;98462.72;4953410;28;20206;-92
2022/04/06 17:01:40;;;;;;;2.93;1.37;;;;;;;20.77;32.17;98467.41;4946933;29;20196;-92
2022/04/06 17:04:07;;;;;;;67.23;28.13;;;;;;;20.59;32.48;98460.50;4939391;29;20185;-92
2022/04/06 17:06:35;;;;;;;9.63;3.27;;;;;;;20.53;32.78;98461.97;4957138;29;20624;-90
2022/04/06 17:09:06;;;;;;;5.00;2.40;;;;;;;20.43;33.03;98463.09;4956424;29;20169;-91
2022/04/06 17:11:36;;;;;;;3.90;1.67;;;;;;;20.42;33.19;98464.06;4939062;29;20559;-92
2022/04/06 17:14:05;;;;;;;2.07;1.30;;;;;;;20.31;33.46;98465.19;4937344;29;20173;-90
2022/04/06 17:16:32;;;;;;;4.10;1.90;;;;;;;20.18;33.71;98476.22;4944151;29;20248;-91
2022/04/06 17:18:59;;;;;;;5.27;1.93;;;;;;;20.11;33.96;98475.19;4927151;29;20202;-90
2022/04/06 17:21:27;;;;;;;6.90;3.07;;;;;;;20.14;34.25;98474.03;4920572;29;20626;-92
2022/04/06 17:23:56;;;;;;;5.87;1.80;;;;;;;20.19;34.14;98466.41;4920505;29;20294;-91
2022/04/06 17:26:22;;;;;;;3.20;1.40;;;;;;;20.16;34.18;98480.88;4936241;29;20562;-90
2022/04/06 17:28:48;;;;;;;4.93;2.07;;;;;;;20.01;34.58;98482.44;4935072;29;20188;-91
2022/04/06 17:31:13;;;;;;;2.33;1.47;;;;;;;20.01;34.58;98477.13;4919895;29;20547;-90
2022/04/06 17:33:39;;;;;;;3.30;1.87;;;;;;;19.83;35.12;98481.63;4936059;29;20189;-92
2022/04/06 17:36:06;;;;;;;4.13;1.90;;;;;;;19.72;35.17;98489.84;4936627;29;20181;-90
2022/04/06 17:38:31;;;;;;;3.80;1.73;;;;;;;19.57;35.64;98491.41;4935814;29;20679;-91
2022/04/06 17:40:57;;;;;;;3.97;1.97;;;;;;;19.67;35.81;98488.63;4936521;29;20255;-90
2022/04/06 17:43:23;;;;;;;3.87;1.60;;;;;;;19.55;36.02;98493.34;4919792;29;20181;-90
2022/04/06 17:45:49;;;;;;;3.27;1.60;;;;;;;19.52;36.25;98497.13;4919799;29;20189;-91
2022/04/06 17:48:15;;;;;;;11.53;5.40;;;;;;;19.22;37.08;98501.97;4937016;29;20191;-90
2022/04/06 17:50:43;;;;;;;22.33;8.67;;;;;;;19.11;37.56;98497.69;4919834;29;20177;-90
2022/04/06 17:53:08;;;;;;;8.93;4.47;;;;;;;18.98;37.87;98494.56;4936231;29;20272;-92
2022/04/06 17:55:34;;;;;;;5.67;2.53;;;;;;;18.89;37.79;98506.91;4937417;29;20317;-90
2022/04/06 17:58:00;;;;;;;4.63;2.03;;;;;;;19.10;37.58;98501.34;4936275;29;20228;-91
2022/04/06 18:00:26;;;;;;;4.17;1.90;;;;;;;19.13;37.62;98502.88;4936112;29;20805;-92
2022/04/06 18:02:52;;;;;;;4.17;1.70;;;;;;;19.13;37.39;98510.84;4920242;29;20291;-90
2022/04/06 18:05:18;;;;;;;4.90;1.50;;;;;;;18.90;38.21;98513.91;4918695;29;20675;-92
2022/04/06 18:07:43;;;;;;;2.53;1.53;;;;;;;18.85;38.01;98516.16;4934654;29;20222;-90
2022/04/06 18:10:13;;;;;;;3.80;1.97;;;;;;;18.93;38.08;98518.06;4934983;29;20192;-90
2022/04/06 18:15:24;;;;;;;6.30;2.03;;;;;;;18.71;38.81;98518.47;4936578;29;20181;-90
2022/04/06 18:17:49;;;;;;;3.10;1.63;;;;;;;18.64;39.05;98528.84;4934957;29;20196;-89
2022/04/06 18:20:15;;;;;;;4.60;1.70;;;;;;;18.59;39.01;98528.44;4935903;29;20201;-90
2022/04/06 18:22:41;;;;;;;2.87;1.40;;;;;;;18.57;38.68;98525.09;4936175;29;20623;-91
2022/04/06 18:25:09;;;;;;;5.27;1.63;;;;;;;18.54;38.76;98536.00;4936159;29;20648;-91
2022/04/06 18:27:34;;;;;;;5.30;2.00;;;;;;;18.54;38.99;98537.81;4919164;29;20185;-91
2022/04/06 18:30:00;;;;;;;3.90;1.80;;;;;;;18.53;39.18;98541.44;4936117;29;20184;-91
2022/04/06 18:32:27;;;;;;;4.70;1.57;;;;;;;18.51;39.09;98538.94;4935796;29;20701;-89
2022/04/06 18:34:53;;;;;;;3.80;1.33;;;;;;;18.62;39.08;98536.09;4936049;29;20264;-89
2022/04/06 18:37:22;;;;;;;6.93;3.00;;;;;;;18.51;39.16;98544.25;4919189;29;20918;-90
2022/04/06 18:39:48;;;;;;;8.90;2.60;;;;;;;18.30;39.73;98547.06;4918930;29;20230;-91
2022/04/06 18:42:14;;;;;;;4.23;1.60;;;;;;;18.13;39.97;98549.63;4918964;29;20236;-89
2022/04/06 18:44:39;;;;;;;5.63;2.27;;;;;;;18.19;40.08;98549.03;4936176;29;20189;-88
2022/04/06 18:47:05;;;;;;;5.10;2.17;;;;;;;18.12;40.07;98547.94;4935991;29;20190;-89
2022/04/06 18:49:32;;;;;;;3.63;1.80;;;;;;;18.21;39.63;98553.22;4935634;29;20180;-89
2022/04/06 18:51:58;;;;;;;7.33;1.87;;;;;;;18.16;39.78;98555.47;4935945;29;20180;-88
2022/04/06 18:54:24;;;;;;;6.07;2.23;;;;;;;18.07;39.88;98555.47;4935898;29;20201;-89
2022/04/06 18:56:51;;;;;;;3.67;1.60;;;;;;;18.08;39.98;98560.63;4935875;29;20178;-88
2022/04/06 18:59:17;;;;;;;4.10;2.00;;;;;;;18.22;40.05;98549.59;4935532;29;20223;-90
2022/04/06 19:01:43;;;;;;;4.13;1.97;;;;;;;18.32;39.47;98549.56;4936057;29;20177;-89
2022/04/06 19:04:09;;;;;;;7.33;1.57;;;;;;;18.24;39.60;98549.44;4919010;29;20659;-89
2022/04/06 19:06:36;;;;;;;8.63;2.10;;;;;;;18.09;39.93;98554.38;4935745;29;20178;-89
2022/04/06 19:09:07;;;;;;;5.90;1.60;;;;;;;17.97;40.09;98559.97;4935516;29;20263;-88
2022/04/06 19:11:34;;;;;;;2.97;1.47;;;;;;;17.84;40.61;98554.13;4935771;29;20174;-89
2022/04/06 19:13:59;;;;;;;5.43;2.30;;;;;;;17.50;40.63;98551.84;4935738;29;20181;-89
2022/04/06 19:16:25;;;;;;;8.50;1.50;;;;;;;17.64;40.56;98553.25;4935470;29;20346;-89
2022/04/06 19:18:50;;;;;;;4.03;1.23;;;;;;;17.76;40.69;98553.00;4935421;29;20269;-89
2022/04/06 19:21:17;;;;;;;2.90;1.23;;;;;;;17.46;41.02;98558.38;4937319;29;20519;-89
2022/04/06 19:23:42;;;;;;;3.77;1.37;;;;;;;17.49;41.00;98555.47;4939109;29;20208;-89
2022/04/06 19:26:08;;;;;;;3.60;1.53;;;;;;;17.59;41.04;98561.63;4939885;29;20186;-89
2022/04/06 19:28:34;;;;;;;1.93;1.10;;;;;;;17.37;41.38;98561.88;4938997;29;20352;-89
2022/04/06 19:31:00;;;;;;;5.10;1.83;;;;;;;17.31;41.18;98566.84;4922420;29;20606;-89
2022/04/06 19:33:26;;;;;;;4.47;1.47;;;;;;;17.39;41.24;98564.38;4939493;29;20545;-89
2022/04/06 19:35:52;;;;;;;4.47;1.63;;;;;;;17.18;41.52;98553.88;4922565;29;20185;-90
2022/04/06 19:38:17;;;;;;;3.10;1.47;;;;;;;17.10;41.81;98556.34;4938008;29;20209;-89
2022/04/06 19:40:43;;;;;;;3.73;1.90;;;;;;;17.10;41.88;98556.34;4938986;29;20189;-89
2022/04/06 19:43:08;;;;;;;5.97;1.60;;;;;;;17.01;41.91;98554.50;4939172;29;20186;-89
2022/04/06 19:45:34;;;;;;;4.47;1.93;;;;;;;16.87;41.99;98544.31;4938926;29;20682;-89
2022/04/06 19:48:00;;;;;;;5.93;1.93;;;;;;;16.80;42.17;98556.38;4939659;29;20189;-88
2022/04/06 19:50:26;;;;;;;7.90;2.17;;;;;;;16.60;42.48;98544.88;4938526;29;20260;-88
2022/04/06 19:52:51;;;;;;;2.33;1.00;;;;;;;16.61;42.24;98545.75;4921698;29;20280;-91
2022/04/06 19:55:17;;;;;;;3.97;1.67;;;;;;;16.65;42.02;98547.13;4937446;29;20264;-90
2022/04/06 19:57:42;;;;;;;2.27;1.43;;;;;;;16.64;41.83;98548.13;4938693;29;20272;-88
2022/04/06 20:00:09;;;;;;;4.70;1.97;;;;;;;16.68;41.65;98549.53;4921569;29;20213;-89
2022/04/06 20:02:35;;;;;;;4.87;1.80;;;;;;;16.59;41.72;98538.75;4938588;29;20193;-89
2022/04/06 20:05:00;;;;;;;3.20;1.60;;;;;;;16.39;41.97;98546.69;4938588;29;20701;-88
2022/04/06 20:07:26;;;;;;;3.57;1.30;;;;;;;16.14;42.44;98542.66;4921531;29;20180;-91
2022/04/06 20:09:51;;;;;;;2.40;1.13;;;;;;;16.29;41.65;98536.09;4921390;29;20185;-89
2022/04/06 20:12:17;;;;;;;3.63;1.50;;;;;;;16.28;41.64;98539.69;4921385;29;20185;-89
2022/04/06 20:14:42;;;;;;;2.03;1.13;;;;;;;16.29;41.65;98536.09;4938106;29;20625;-89
2022/04/06 20:17:10;;;;;;;4.17;1.50;;;;;;;16.41;41.64;98535.03;4938063;29;20183;-89
2022/04/06 20:19:36;;;;;;;3.27;1.60;;;;;;;16.25;41.75;98531.16;4937019;29;20205;-89
2022/04/06 20:22:02;;;;;;;2.70;1.30;;;;;;;16.41;41.42;98527.09;4937987;29;20245;-88
2022/04/06 20:24:27;;;;;;;2.80;1.77;;;;;;;16.44;41.59;98523.34;4938010;29;20190;-89
2022/04/06 20:26:53;;;;;;;1.93;1.00;;;;;;;16.29;41.75;98525.50;4937941;29;20750;-89
2022/04/06 20:29:18;;;;;;;3.30;1.23;;;;;;;16.40;41.53;98535.16;4921159;29;20181;-90
2022/04/06 20:31:45;;;;;;;1.60;0.80;;;;;;;16.40;41.44;98528.03;4937813;29;20184;-88
2022/04/06 20:34:11;;;;;;;3.23;1.67;;;;;;;16.45;41.22;98533.81;4920688;29;20272;-89
2022/04/06 20:36:38;;;;;;;2.70;1.60;;;;;;;16.47;41.09;98523.91;4937734;29;20222;-88
2022/04/06 20:39:04;;;;;;;2.03;0.97;;;;;;;16.47;41.09;98523.91;4920923;29;20237;-88
2022/04/06 20:41:30;;;;;;;2.90;1.47;;;;;;;16.38;40.96;98524.69;4937940;29;20217;-89
2022/04/06 20:43:58;;;;;;;2.77;1.20;;;;;;;16.22;41.55;98521.69;4920848;29;20188;-88
2022/04/06 20:46:23;;;;;;;3.80;1.40;;;;;;;16.12;41.38;98519.94;4937570;29;20197;-89
2022/04/06 20:48:50;;;;;;;3.37;1.70;;;;;;;16.05;41.48;98532.88;4937843;29;20215;-89
2022/04/06 20:51:17;;;;;;;2.53;1.10;;;;;;;15.95;41.66;98526.69;4936609;29;20184;-89
2022/04/06 20:53:44;;;;;;;2.83;1.30;;;;;;;15.88;41.67;98520.22;4920569;29;20273;-88
2022/04/06 20:56:10;;;;;;;2.57;1.20;;;;;;;15.93;41.25;98524.16;4937467;29;20173;-88
2022/04/06 20:58:37;;;;;;;2.77;0.90;;;;;;;15.96;41.09;98521.25;4937316;29;20690;-89
2022/04/06 21:01:03;;;;;;;3.23;1.40;;;;;;;15.83;40.88;98522.41;4920846;29;20279;-89
2022/04/06 21:03:28;;;;;;;4.40;1.37;;;;;;;15.88;40.85;98514.94;4920531;29;20259;-89
2022/04/06 21:05:53;;;;;;;2.10;1.17;;;;;;;15.85;40.78;98521.31;4937541;29;20216;-88
2022/04/06 21:08:20;;;;;;;5.00;2.17;;;;;;;15.74;40.56;98521.38;4920483;29;20634;-89
2022/04/06 21:10:46;;;;;;;2.67;1.37;;;;;;;15.72;40.44;98515.38;4937152;29;20691;-88
2022/04/06 21:13:11;;;;;;;6.33;1.77;;;;;;;15.54;40.64;98516.91;4937078;29;20179;-89
2022/04/06 21:15:37;;;;;;;3.03;1.30;;;;;;;15.44;40.57;98517.75;4937085;29;20188;-89
2022/04/06 21:18:03;;;;;;;5.63;2.33;;;;;;;15.34;40.82;98513.22;4920312;29;20661;-88
2022/04/06 21:20:33;;;;;;;3.87;1.73;;;;;;;15.23;40.94;98507.97;4920143;29;20214;-88
2022/04/06 21:22:59;;;;;;;7.23;2.53;;;;;;;15.22;41.01;98505.47;4937277;29;20179;-88
2022/04/06 21:25:24;;;;;;;8.50;2.40;;;;;;;15.06;41.18;98495.31;4937399;29;20189;-89
2022/04/06 21:27:50;;;;;;;11.67;3.37;;;;;;;15.00;41.71;98490.53;4920332;29;20254;-88
2022/04/06 21:30:15;;;;;;;6.13;1.90;;;;;;;14.97;41.50;98490.78;4920101;29;20551;-89
2022/04/06 21:32:41;;;;;;;4.50;1.83;;;;;;;14.70;41.75;98482.47;4919967;29;20551;-90
2022/04/06 21:35:08;;;;;;;10.20;2.33;;;;;;;14.60;41.90;98482.31;4919920;29;20555;-89
2022/04/06 21:37:34;;;;;;;4.57;2.07;;;;;;;14.66;41.49;98475.72;4936688;29;20183;-89
2022/04/06 21:39:59;;;;;;;4.40;1.50;;;;;;;14.90;41.06;98471.13;4919761;29;20238;-87
2022/04/06 21:42:25;;;;;;;2.33;1.37;;;;;;;14.83;40.77;98477.03;4936864;29;20237;-88
2022/04/06 21:44:50;;;;;;;3.27;1.20;;;;;;;14.92;40.54;98477.13;4936364;29;20636;-88
2022/04/06 21:47:15;;;;;;;5.37;1.70;;;;;;;15.14;40.16;98469.16;4936521;29;20186;-89
2022/04/06 21:49:41;;;;;;;14.53;3.57;;;;;;;14.93;40.33;98470.91;4920000;29;20219;-88
2022/04/06 21:52:07;;;;;;;3.57;1.87;;;;;;;14.99;40.13;98467.72;4936409;29;20225;-89
2022/04/06 21:54:33;;;;;;;9.53;2.80;;;;;;;14.90;40.65;98465.84;4936271;29;20224;-89
2022/04/06 21:56:59;;;;;;;8.17;2.87;;;;;;;14.74;40.77;98470.69;4936388;29;20554;-88
2022/04/06 21:59:25;;;;;;;20.97;4.70;;;;;;;14.59;40.71;98462.22;4936199;29;20201;-89
2022/04/06 22:01:50;;;;;;;13.53;2.67;;;;;;;14.28;41.28;98462.88;4919467;29;20190;-89
2022/04/06 22:04:16;;;;;;;8.77;3.40;;;;;;;14.33;41.53;98470.50;4919445;29;20183;-89
2022/04/06 22:06:41;;;;;;;13.77;3.67;;;;;;;14.59;40.98;98456.09;4919443;29;20185;-88
2022/04/06 22:09:07;;;;;;;8.17;2.07;;;;;;;14.35;41.11;98448.31;4919461;29;20549;-88
2022/04/06 22:11:32;;;;;;;8.10;3.17;;;;;;;14.49;41.06;98441.97;4919401;29;20178;-88
2022/04/06 22:13:58;;;;;;;2.50;1.23;;;;;;;14.52;40.65;98452.22;4936657;29;20272;-89
2022/04/06 22:16:23;;;;;;;3.97;1.67;;;;;;;14.49;40.86;98452.50;4936066;29;20633;-88
2022/04/06 22:18:49;;;;;;;3.53;1.30;;;;;;;14.47;41.14;98449.13;4936049;29;20213;-88
2022/04/06 22:21:14;;;;;;;5.53;2.53;;;;;;;14.31;41.14;98449.50;4919228;29;20742;-88
2022/04/06 22:23:40;;;;;;;4.00;1.20;;;;;;;14.41;41.00;98444.38;4936263;29;20200;-88
2022/04/06 22:26:05;;;;;;;3.83;1.50;;;;;;;14.43;40.86;98442.44;4919175;29;20200;-88
2022/04/06 22:28:31;;;;;;;3.90;1.50;;;;;;;14.33;41.00;98441.50;4936442;29;20190;-87
2022/04/06 22:30:56;;;;;;;2.00;1.40;;;;;;;14.36;41.00;98446.53;4919182;29;20348;-88
2022/04/06 22:33:22;;;;;;;9.17;2.70;;;;;;;14.40;40.71;98438.25;4934979;29;20295;-88
2022/04/06 22:35:47;;;;;;;4.30;1.73;;;;;;;14.31;40.76;98438.09;4935927;29;20169;-87
2022/04/06 22:38:13;;;;;;;3.87;1.57;;;;;;;14.08;41.18;98435.47;4935829;29;20685;-88
2022/04/06 22:40:38;;;;;;;2.30;0.97;;;;;;;13.95;40.81;98432.09;4919095;29;20545;-89
2022/04/06 22:43:04;;;;;;;2.37;1.10;;;;;;;13.93;41.17;98426.13;4936153;29;20178;-90
2022/04/06 22:45:29;;;;;;;5.27;1.43;;;;;;;13.77;41.21;98422.97;4918979;29;20506;-88
2022/04/06 22:47:55;;;;;;;2.20;1.30;;;;;;;13.53;41.00;98419.59;4918923;29;20185;-88
2022/04/06 22:50:22;;;;;;;3.00;1.70;;;;;;;13.44;41.37;98412.41;4936030;29;20170;-89
2022/04/06 22:52:47;;;;;;;2.43;1.20;;;;;;;13.62;40.64;98408.38;4935678;29;20180;-88
2022/04/06 22:55:13;;;;;;;1.73;0.97;;;;;;;13.79;40.72;98405.25;4935828;28;20291;-88
2022/04/06 22:57:38;;;;;;;2.90;1.17;;;;;;;13.59;40.87;98400.69;4939574;29;20206;-89
2022/04/06 23:00:10;;;;;;;1.83;1.10;;;;;;;13.29;41.25;98400.38;4922629;29;20200;-89
2022/04/06 23:02:36;;;;;;;3.17;1.40;;;;;;;12.95;41.56;98394.97;4939759;29;20174;-89
2022/04/06 23:05:03;;;;;;;1.43;0.90;;;;;;;12.94;41.78;98401.16;4939382;29;20203;-89
2022/04/06 23:07:28;;;;;;;2.23;0.93;;;;;;;13.03;41.76;98394.38;4939388;29;20618;-89
2022/04/06 23:09:53;;;;;;;2.10;1.07;;;;;;;12.83;42.15;98393.25;4922805;29;20204;-88
2022/04/06 23:12:19;;;;;;;1.93;1.00;;;;;;;12.84;42.31;98388.84;4939548;29;20196;-89
2022/04/06 23:14:46;;;;;;;3.43;1.23;;;;;;;12.58;42.74;98382.81;4939267;29;20251;-88
2022/04/06 23:17:12;;;;;;;3.20;1.40;;;;;;;12.70;42.23;98378.47;4922838;29;20232;-88
2022/04/06 23:19:38;;;;;;;3.17;1.20;;;;;;;12.69;42.41;98371.53;4922267;29;20210;-88
2022/04/06 23:22:04;;;;;;;3.20;1.50;;;;;;;12.86;42.30;98361.47;4939580;29;20195;-88
2022/04/06 23:24:30;;;;;;;2.87;1.67;;;;;;;12.99;41.68;98355.28;4939063;29;20267;-87
2022/04/06 23:26:55;;;;;;;5.07;1.30;;;;;;;13.12;41.46;98350.81;4939051;29;20179;-89
2022/04/06 23:29:21;;;;;;;2.70;1.13;;;;;;;13.17;40.88;98343.41;4939202;29;20170;-88
2022/04/06 23:31:47;;;;;;;5.30;1.43;;;;;;;13.24;40.96;98344.59;4939189;29;20185;-88
2022/04/06 23:34:13;;;;;;;2.03;0.77;;;;;;;13.26;40.38;98340.91;4922134;29;20678;-87